createdAt,value
2019-05-21T00:00:13.140Z,11.40
2019-05-21T00:03:17.370Z,11.30
2019-05-21T00:06:21.670Z,11.30
2019-05-21T00:09:26.028Z,11.30
2019-05-21T00:12:30.223Z,11.30
2019-05-21T00:15:34.450Z,11.20
2019-05-21T00:18:38.694Z,11.20
2019-05-21T00:21:43.126Z,11.20
2019-05-21T00:24:47.572Z,11.20
2019-05-21T00:27:51.915Z,11.20
2019-05-21T00:31:32.259Z,11.20
2019-05-21T00:35:12.410Z,11.20
2019-05-21T00:38:52.732Z,11.20
2019-05-21T00:42:05.066Z,11.20
2019-05-21T00:45:11.110Z,11.20
2019-05-21T00:48:15.403Z,11.20
2019-05-21T00:51:19.585Z,11.20
2019-05-21T00:54:23.992Z,11.20
2019-05-21T00:57:28.261Z,11.20
2019-05-21T01:00:32.559Z,11.10
2019-05-21T01:03:36.747Z,11.10
2019-05-21T01:06:41.179Z,11.10
2019-05-21T01:09:45.348Z,11.20
2019-05-21T01:12:49.579Z,11.10
2019-05-21T01:15:53.785Z,11.10
2019-05-21T01:19:01.082Z,11.10
2019-05-21T01:22:05.291Z,11.10
2019-05-21T01:25:12.281Z,11.10
2019-05-21T01:28:16.868Z,11.10
2019-05-21T01:31:21.258Z,11.10
2019-05-21T01:34:25.595Z,11.10
2019-05-21T01:37:31.087Z,11.20
2019-05-21T01:40:35.396Z,11.20
2019-05-21T01:43:39.644Z,11.20
2019-05-21T01:46:43.839Z,11.20
2019-05-21T01:49:48.190Z,11.20
2019-05-21T01:52:52.459Z,11.20
2019-05-21T01:55:56.878Z,11.10
2019-05-21T01:59:01.110Z,11.10
2019-05-21T02:02:05.497Z,11.10
2019-05-21T02:05:10.016Z,11.10
2019-05-21T02:08:14.288Z,11.10
2019-05-21T02:11:18.508Z,11.10
2019-05-21T02:14:22.784Z,11.20
2019-05-21T02:17:27.143Z,11.10
2019-05-21T02:20:31.594Z,11.10
2019-05-21T02:23:35.874Z,11.20
2019-05-21T02:26:40.170Z,11.20
2019-05-21T02:29:44.467Z,11.10
2019-05-21T02:32:48.778Z,11.10
2019-05-21T02:35:54.849Z,11.10
2019-05-21T02:38:59.138Z,11.10
2019-05-21T02:42:03.411Z,11.10
2019-05-21T02:45:09.380Z,11.10
2019-05-21T02:48:13.922Z,11.10
2019-05-21T02:51:18.235Z,11.10
2019-05-21T02:54:39.194Z,11.10
2019-05-21T02:57:39.055Z,11.00
2019-05-21T03:01:01.343Z,11.00
2019-05-21T03:04:05.665Z,10.90
2019-05-21T03:07:18.770Z,10.90
2019-05-21T03:10:23.139Z,10.90
2019-05-21T03:13:27.344Z,10.90
2019-05-21T03:16:31.670Z,10.80
2019-05-21T03:19:35.943Z,10.90
2019-05-21T03:22:40.173Z,10.80
2019-05-21T03:25:44.452Z,10.80
2019-05-21T03:28:48.755Z,10.80
2019-05-21T03:31:53.080Z,10.80
2019-05-21T03:34:57.430Z,10.80
2019-05-21T03:38:01.718Z,10.80
2019-05-21T03:41:06.083Z,10.70
2019-05-21T03:44:10.402Z,10.70
2019-05-21T03:47:14.764Z,10.80
2019-05-21T03:50:19.080Z,10.80
2019-05-21T03:53:23.426Z,10.80
2019-05-21T03:56:27.756Z,10.70
2019-05-21T03:59:32.119Z,10.70
2019-05-21T04:02:36.396Z,10.70
2019-05-21T04:05:40.772Z,10.70
2019-05-21T04:08:45.047Z,10.70
2019-05-21T04:11:53.140Z,10.60
2019-05-21T04:14:59.590Z,10.60
2019-05-21T04:18:08.521Z,10.60
2019-05-21T04:21:12.824Z,10.60
2019-05-21T04:24:17.079Z,10.50
2019-05-21T04:27:21.262Z,10.50
2019-05-21T04:30:25.647Z,10.50
2019-05-21T04:33:29.838Z,10.50
2019-05-21T04:36:34.148Z,10.50
2019-05-21T04:39:38.368Z,10.50
2019-05-21T04:42:42.651Z,10.50
2019-05-21T04:45:46.921Z,10.50
2019-05-21T04:48:51.216Z,10.50
2019-05-21T04:51:55.483Z,10.50
2019-05-21T04:54:59.841Z,10.50
2019-05-21T04:58:04.273Z,10.50
2019-05-21T05:01:08.642Z,10.50
2019-05-21T05:04:12.900Z,10.50
2019-05-21T05:07:27.621Z,10.40
2019-05-21T05:10:23.435Z,10.40
2019-05-21T05:13:27.754Z,10.40
2019-05-21T05:16:32.077Z,10.40
2019-05-21T05:19:36.542Z,10.50
2019-05-21T05:22:40.830Z,10.40
2019-05-21T05:25:45.154Z,10.50
2019-05-21T05:28:49.432Z,10.50
2019-05-21T05:31:53.776Z,10.60
2019-05-21T05:34:58.060Z,10.60
2019-05-21T05:38:02.580Z,10.60
2019-05-21T05:41:06.843Z,10.60
2019-05-21T05:44:11.301Z,10.60
2019-05-21T05:47:15.598Z,10.60
2019-05-21T05:50:22.446Z,10.60
2019-05-21T05:53:26.738Z,10.60
2019-05-21T05:56:31.208Z,10.60
2019-05-21T05:59:35.607Z,10.60
2019-05-21T06:02:40.021Z,10.70
2019-05-21T06:05:44.328Z,10.70
2019-05-21T06:08:49.194Z,10.70
2019-05-21T06:11:53.466Z,10.80
2019-05-21T06:14:57.724Z,10.80
2019-05-21T06:18:02.067Z,10.80
2019-05-21T06:21:06.455Z,10.80
2019-05-21T06:24:13.481Z,10.80
2019-05-21T06:27:16.739Z,10.80
2019-05-21T06:30:21.109Z,10.80
2019-05-21T06:33:25.411Z,10.90
2019-05-21T06:36:29.632Z,10.90
2019-05-21T06:39:34.053Z,10.90
2019-05-21T06:42:38.312Z,10.90
2019-05-21T06:45:42.686Z,11.00
2019-05-21T06:48:46.972Z,11.00
2019-05-21T06:51:51.303Z,11.00
2019-05-21T06:54:55.741Z,11.10
2019-05-21T06:58:00.116Z,11.10
2019-05-21T07:01:04.357Z,11.20
2019-05-21T07:04:08.620Z,11.30
2019-05-21T07:07:12.909Z,11.30
2019-05-21T07:10:17.461Z,11.40
2019-05-21T07:13:21.742Z,11.40
2019-05-21T07:16:26.022Z,11.40
2019-05-21T07:19:30.230Z,11.40
2019-05-21T07:22:34.707Z,11.50
2019-05-21T07:25:42.007Z,11.50
2019-05-21T07:28:46.356Z,11.50
2019-05-21T07:31:50.608Z,11.60
2019-05-21T07:34:55.026Z,11.60
2019-05-21T07:37:59.237Z,11.70
2019-05-21T07:41:03.622Z,11.70
2019-05-21T07:44:07.908Z,11.60
2019-05-21T07:47:12.270Z,11.70
2019-05-21T07:50:16.572Z,11.70
2019-05-21T07:53:20.906Z,11.80
2019-05-21T07:56:25.289Z,11.80
2019-05-21T07:59:31.104Z,11.80
2019-05-21T08:02:35.393Z,11.80
2019-05-21T08:05:39.768Z,11.90
2019-05-21T08:08:44.260Z,11.90
2019-05-21T08:11:48.962Z,11.90
2019-05-21T08:14:58.225Z,12.00
2019-05-21T08:18:02.540Z,12.00
2019-05-21T08:21:06.799Z,12.10
2019-05-21T08:24:11.089Z,12.10
2019-05-21T08:27:15.439Z,12.10
2019-05-21T08:30:19.945Z,12.10
2019-05-21T08:33:24.246Z,12.20
2019-05-21T08:36:28.545Z,12.20
2019-05-21T08:39:32.798Z,12.30
2019-05-21T08:42:37.054Z,12.40
2019-05-21T08:45:41.322Z,12.60
2019-05-21T08:48:45.747Z,12.60
2019-05-21T08:51:49.960Z,12.60
2019-05-21T08:54:56.512Z,12.70
2019-05-21T08:58:07.030Z,12.70
2019-05-21T09:01:06.246Z,12.50
2019-05-21T09:04:10.514Z,12.60
2019-05-21T09:07:14.867Z,12.70
2019-05-21T09:10:19.120Z,12.80
2019-05-21T09:13:23.345Z,12.80
2019-05-21T09:16:27.598Z,12.90
2019-05-21T09:19:36.121Z,13.10
2019-05-21T09:22:37.868Z,13.20
2019-05-21T09:25:42.181Z,13.30
2019-05-21T09:28:46.416Z,13.20
2019-05-21T09:31:50.636Z,13.50
2019-05-21T09:34:54.907Z,13.80
2019-05-21T09:37:59.141Z,14.00
2019-05-21T09:41:03.487Z,13.90
2019-05-21T09:44:07.771Z,14.00
2019-05-21T09:47:11.973Z,14.30
2019-05-21T09:50:16.686Z,14.50
2019-05-21T09:53:20.967Z,14.60
2019-05-21T09:56:35.388Z,14.80
2019-05-21T09:59:54.339Z,14.60
2019-05-21T10:02:58.607Z,14.50
2019-05-21T10:06:02.880Z,14.70
2019-05-21T10:09:11.995Z,14.70
2019-05-21T10:12:16.232Z,14.70
2019-05-21T10:15:20.512Z,14.80
2019-05-21T10:18:24.776Z,14.70
2019-05-21T10:21:28.990Z,14.80
2019-05-21T10:24:33.267Z,14.80
2019-05-21T10:27:37.677Z,14.90
2019-05-21T10:30:41.944Z,14.90
2019-05-21T10:33:46.235Z,15.00
2019-05-21T10:36:50.467Z,14.90
2019-05-21T10:39:54.798Z,15.00
2019-05-21T10:43:02.053Z,15.00
2019-05-21T10:46:06.689Z,15.20
2019-05-21T10:49:10.871Z,15.30
2019-05-21T10:52:15.174Z,15.60
2019-05-21T10:55:19.398Z,15.40
2019-05-21T10:58:23.839Z,15.50
2019-05-21T11:01:46.028Z,15.60
2019-05-21T11:05:00.502Z,15.60
2019-05-21T11:08:23.103Z,15.70
2019-05-21T11:11:11.809Z,15.60
2019-05-21T11:14:16.896Z,15.50
2019-05-21T11:17:21.319Z,15.60
2019-05-21T11:20:25.646Z,15.50
2019-05-21T11:23:29.895Z,15.60
2019-05-21T11:26:34.180Z,15.60
2019-05-21T11:29:38.415Z,15.40
2019-05-21T11:32:42.651Z,15.50
2019-05-21T11:35:47.995Z,15.70
2019-05-21T11:38:52.287Z,15.80
2019-05-21T11:41:56.794Z,15.60
2019-05-21T11:45:01.151Z,15.50
2019-05-21T11:48:05.384Z,15.50
2019-05-21T11:51:12.630Z,15.50
2019-05-21T11:54:15.619Z,15.70
2019-05-21T11:57:20.006Z,15.70
2019-05-21T12:00:26.145Z,16.00
2019-05-21T12:03:30.389Z,16.00
2019-05-21T12:06:34.877Z,16.30
2019-05-21T12:09:39.164Z,16.30
2019-05-21T12:12:43.403Z,16.30
2019-05-21T12:15:47.736Z,16.30
2019-05-21T12:18:51.976Z,16.10
2019-05-21T12:21:56.159Z,16.50
2019-05-21T12:25:00.402Z,16.50
2019-05-21T12:28:04.781Z,16.60
2019-05-21T12:31:09.025Z,16.60
2019-05-21T12:34:13.323Z,16.40
2019-05-21T12:37:17.577Z,16.60
2019-05-21T12:40:22.043Z,16.80
2019-05-21T12:43:26.274Z,16.60
2019-05-21T12:46:30.538Z,16.30
2019-05-21T12:49:34.834Z,16.10
2019-05-21T12:52:39.152Z,16.30
2019-05-21T12:55:43.545Z,16.40
2019-05-21T12:58:47.824Z,16.40
2019-05-21T13:01:52.325Z,16.60
2019-05-21T13:04:56.581Z,16.80
2019-05-21T13:08:00.835Z,16.90
2019-05-21T13:11:05.128Z,17.20
2019-05-21T13:14:09.473Z,17.10
2019-05-21T13:17:13.975Z,17.10
2019-05-21T13:20:18.694Z,16.90
2019-05-21T13:23:23.080Z,16.90
2019-05-21T13:26:27.312Z,16.90
2019-05-21T13:29:31.913Z,16.80
2019-05-21T13:32:36.445Z,16.80
2019-05-21T13:35:40.788Z,17.00
2019-05-21T13:38:48.094Z,17.00
2019-05-21T13:41:52.336Z,17.00
2019-05-21T13:44:57.734Z,17.10
2019-05-21T13:48:02.009Z,16.80
2019-05-21T13:51:06.441Z,16.70
2019-05-21T13:54:10.752Z,16.70
2019-05-21T13:57:15.068Z,16.70
2019-05-21T14:00:28.417Z,16.50
2019-05-21T14:03:32.661Z,16.30
2019-05-21T14:06:37.018Z,16.40
2019-05-21T14:09:41.360Z,16.50
2019-05-21T14:12:47.814Z,16.40
2019-05-21T14:15:52.100Z,16.40
2019-05-21T14:18:56.466Z,16.50
2019-05-21T14:22:00.746Z,16.50
2019-05-21T14:25:05.281Z,16.60
2019-05-21T14:28:09.579Z,16.90
2019-05-21T14:31:13.850Z,16.80
2019-05-21T14:34:18.264Z,16.60
2019-05-21T14:37:22.449Z,16.50
2019-05-21T14:40:32.185Z,16.50
2019-05-21T14:43:56.707Z,16.50
2019-05-21T14:46:52.476Z,16.80
2019-05-21T14:50:02.077Z,17.00
2019-05-21T14:53:07.300Z,16.90
2019-05-21T14:56:11.571Z,16.80
2019-05-21T14:59:15.908Z,16.90
2019-05-21T15:02:20.166Z,16.70
2019-05-21T15:05:24.598Z,16.50
2019-05-21T15:08:28.914Z,16.50
2019-05-21T15:11:33.213Z,16.40
2019-05-21T15:14:37.451Z,16.20
2019-05-21T15:17:41.751Z,16.20
2019-05-21T15:20:53.859Z,16.20
2019-05-21T15:23:58.297Z,16.30
2019-05-21T15:27:02.578Z,16.20
2019-05-21T15:30:07.279Z,16.20
2019-05-21T15:33:11.552Z,16.10
2019-05-21T15:36:15.776Z,16.10
2019-05-21T15:39:19.964Z,16.00
2019-05-21T15:42:24.339Z,15.90
2019-05-21T15:45:29.061Z,15.90
2019-05-21T15:48:33.353Z,15.80
2019-05-21T15:51:37.656Z,15.80
2019-05-21T15:54:41.905Z,15.80
2019-05-21T15:57:46.152Z,15.70
2019-05-21T16:00:51.519Z,15.70
2019-05-21T16:03:55.803Z,15.70
2019-05-21T16:07:00.166Z,15.70
2019-05-21T16:10:04.892Z,15.80
2019-05-21T16:13:09.221Z,15.70
2019-05-21T16:16:13.540Z,15.70
2019-05-21T16:19:17.784Z,15.60
2019-05-21T16:22:22.065Z,15.50
2019-05-21T16:25:26.353Z,15.50
2019-05-21T16:28:30.618Z,15.50
2019-05-21T16:31:34.916Z,15.50
2019-05-21T16:34:39.113Z,15.40
2019-05-21T16:37:43.464Z,15.50
2019-05-21T16:40:47.874Z,15.50
2019-05-21T16:43:52.198Z,15.30
2019-05-21T16:46:56.458Z,15.30
2019-05-21T16:50:00.761Z,15.30
2019-05-21T16:53:05.071Z,15.40
2019-05-21T16:56:09.383Z,15.40
2019-05-21T16:59:13.668Z,15.30
2019-05-21T17:02:17.999Z,15.20
2019-05-21T17:05:22.256Z,15.30
2019-05-21T17:08:26.587Z,15.20
2019-05-21T17:11:30.892Z,15.20
2019-05-21T17:14:35.200Z,15.30
2019-05-21T17:17:39.505Z,15.20
2019-05-21T17:20:43.863Z,15.30
2019-05-21T17:23:48.176Z,15.30
2019-05-21T17:26:52.544Z,15.40
2019-05-21T17:29:56.917Z,15.30
2019-05-21T17:33:01.230Z,15.30
2019-05-21T17:36:05.563Z,15.20
2019-05-21T17:39:09.922Z,15.10
2019-05-21T17:42:15.778Z,15.00
2019-05-21T17:45:20.660Z,15.00
2019-05-21T17:48:24.960Z,15.00
2019-05-21T17:51:29.477Z,14.90
2019-05-21T17:54:33.750Z,14.90
2019-05-21T17:57:38.528Z,14.80
2019-05-21T18:00:52.229Z,14.70
2019-05-21T18:03:56.611Z,14.70
2019-05-21T18:07:01.619Z,14.70
2019-05-21T18:10:06.866Z,14.60
2019-05-21T18:13:12.534Z,14.50
2019-05-21T18:16:16.855Z,14.50
2019-05-21T18:19:21.565Z,14.40
2019-05-21T18:22:26.681Z,14.40
2019-05-21T18:25:31.020Z,14.30
2019-05-21T18:28:35.830Z,14.20
2019-05-21T18:31:40.713Z,14.10
2019-05-21T18:34:45.158Z,14.00
2019-05-21T18:37:49.507Z,14.00
2019-05-21T18:40:53.760Z,13.90
2019-05-21T18:43:58.023Z,13.80
2019-05-21T18:47:02.369Z,13.80
2019-05-21T18:50:06.679Z,13.70
2019-05-21T18:53:10.979Z,13.60
2019-05-21T18:56:15.304Z,13.50
2019-05-21T18:59:19.788Z,13.50
2019-05-21T19:02:24.069Z,13.40
2019-05-21T19:05:28.379Z,13.40
2019-05-21T19:08:33.841Z,13.30
2019-05-21T19:11:38.515Z,13.30
2019-05-21T19:14:44.930Z,13.20
2019-05-21T19:17:49.001Z,13.10
2019-05-21T19:20:53.376Z,13.00
2019-05-21T19:23:57.852Z,13.00
2019-05-21T19:27:02.204Z,12.90
2019-05-21T19:30:07.452Z,12.80
2019-05-21T19:33:11.836Z,12.70
2019-05-21T19:36:16.087Z,12.70
2019-05-21T19:39:20.418Z,12.60
2019-05-21T19:42:24.760Z,12.60
2019-05-21T19:45:31.414Z,12.50
2019-05-21T19:48:35.412Z,12.50
2019-05-21T19:51:39.644Z,12.50
2019-05-21T19:54:43.951Z,12.40
2019-05-21T19:57:48.560Z,12.30
2019-05-21T20:00:54.828Z,12.20
2019-05-21T20:03:59.112Z,12.10
2019-05-21T20:07:05.411Z,12.10
2019-05-21T20:10:10.374Z,12.10
2019-05-21T20:13:14.882Z,12.10
2019-05-21T20:16:19.971Z,12.10
2019-05-21T20:19:25.472Z,12.10
2019-05-21T20:22:33.771Z,11.90
2019-05-21T20:25:38.558Z,11.90
2019-05-21T20:28:42.852Z,11.90
2019-05-21T20:31:47.505Z,11.80
2019-05-21T20:34:52.112Z,11.80
2019-05-21T20:37:56.364Z,11.80
2019-05-21T20:41:00.775Z,11.70
2019-05-21T20:44:07.317Z,11.70
2019-05-21T20:47:13.474Z,11.60
2019-05-21T20:50:18.946Z,11.60
2019-05-21T20:53:23.588Z,11.60
2019-05-21T20:56:28.382Z,11.60
2019-05-21T20:59:32.632Z,11.60
2019-05-21T21:02:37.461Z,11.60
2019-05-21T21:05:41.997Z,11.50
2019-05-21T21:08:46.623Z,11.50
2019-05-21T21:11:50.902Z,11.40
2019-05-21T21:14:56.058Z,11.60
2019-05-21T21:18:00.905Z,11.60
2019-05-21T21:21:05.317Z,11.60
2019-05-21T21:24:10.354Z,11.60
2019-05-21T21:27:15.543Z,11.60
2019-05-21T21:30:20.020Z,11.60
2019-05-21T21:33:24.378Z,11.50
2019-05-21T21:36:29.784Z,11.60
2019-05-21T21:39:34.869Z,11.50
2019-05-21T21:42:39.596Z,11.50
2019-05-21T21:45:44.010Z,11.40
2019-05-21T21:48:48.582Z,11.40
2019-05-21T21:51:53.292Z,11.40
2019-05-21T21:54:57.627Z,11.50
2019-05-21T21:58:02.071Z,11.60
2019-05-21T22:01:43.110Z,11.80
2019-05-21T22:05:08.060Z,11.80
2019-05-21T22:08:12.532Z,11.90
2019-05-21T22:11:18.400Z,12.10
2019-05-21T22:14:23.183Z,12.10
2019-05-21T22:17:27.431Z,12.10
2019-05-21T22:20:32.088Z,12.10
2019-05-21T22:23:36.662Z,12.00
2019-05-21T22:26:41.467Z,12.00
2019-05-21T22:29:45.908Z,11.90
2019-05-21T22:32:50.181Z,12.00
2019-05-21T22:35:54.488Z,12.00
2019-05-21T22:38:58.739Z,12.00
2019-05-21T22:42:03.166Z,11.90
2019-05-21T22:45:09.233Z,11.90
2019-05-21T22:48:13.762Z,11.90
2019-05-21T22:51:18.036Z,12.00
2019-05-21T22:54:22.405Z,11.90
2019-05-21T22:57:26.659Z,11.90
2019-05-21T23:00:32.615Z,11.90
2019-05-21T23:03:37.184Z,11.90
2019-05-21T23:06:41.793Z,11.90
2019-05-21T23:09:46.059Z,11.90
2019-05-21T23:12:50.519Z,11.90
2019-05-21T23:15:55.116Z,11.80
2019-05-21T23:18:59.756Z,11.80
2019-05-21T23:22:05.787Z,11.80
2019-05-21T23:25:11.417Z,11.80
2019-05-21T23:28:15.959Z,11.80
2019-05-21T23:31:20.750Z,11.80
2019-05-21T23:34:25.417Z,11.80
2019-05-21T23:37:31.391Z,11.80
2019-05-21T23:40:35.774Z,11.70
2019-05-21T23:43:40.241Z,11.80
2019-05-21T23:46:44.687Z,11.80
2019-05-21T23:49:49.044Z,11.70
2019-05-21T23:52:55.191Z,11.70
2019-05-21T23:55:59.496Z,11.80
2019-05-21T23:59:05.695Z,11.70
